Time;durP1;ratioP1;P1;durP2;ratioP2;P2;SDS_P1;SDS_P2;PMS_P1;PMS_P2;Temp;Humidity;BMP_temperature;BMP_pressure;BME280_temperature;BME280_humidity;BME280_pressure;Samples;Min_cycle;Max_cycle;Signal;HPM_P1;HPM_P2
2022/06/10 00:00:22;;;;;;;4.57;2.00;;;11.70;99.90;;;;;;5055516;28;20032;-81
2022/06/10 00:02:48;;;;;;;3.80;2.20;;;11.70;99.90;;;;;;5055569;28;20117;-82
2022/06/10 00:05:16;;;;;;;4.65;2.33;;;11.60;99.90;;;;;;5055383;28;20045;-82
2022/06/10 00:07:43;;;;;;;5.10;2.22;;;11.60;99.90;;;;;;5072990;28;20036;-82
2022/06/10 00:10:11;;;;;;;6.53;2.78;;;11.60;99.90;;;;;;5055489;28;20056;-82
2022/06/10 00:12:38;;;;;;;5.90;2.40;;;11.60;99.90;;;;;;5054633;28;20481;-82
2022/06/10 00:15:04;;;;;;;4.47;2.45;;;11.60;99.90;;;;;;5073104;28;20048;-82
2022/06/10 00:17:31;;;;;;;5.97;2.60;;;11.70;99.90;;;;;;5072316;28;20048;-83
2022/06/10 00:19:56;;;;;;;5.95;3.20;;;11.80;99.90;;;;;;5056119;28;20055;-83
2022/06/10 00:22:22;;;;;;;6.40;3.53;;;11.80;99.90;;;;;;5092919;28;20056;-83
2022/06/10 00:24:51;;;;;;;8.05;3.25;;;11.90;99.90;;;;;;5093114;28;20472;-84
2022/06/10 00:27:18;;;;;;;8.15;2.95;;;12.00;99.90;;;;;;5075008;28;20052;-85
2022/06/10 00:29:43;;;;;;;4.63;2.70;;;12.00;99.90;;;;;;5074988;28;20047;-83
2022/06/10 00:32:09;;;;;;;6.95;3.10;;;12.00;99.90;;;;;;5058434;28;20048;-83
2022/06/10 00:34:35;;;;;;;5.68;3.00;;;12.00;99.90;;;;;;5058473;28;20127;-84
2022/06/10 00:37:05;;;;;;;5.38;2.75;;;12.00;99.90;;;;;;5074650;28;20071;-85
2022/06/10 00:39:32;;;;;;;6.35;2.58;;;12.00;99.90;;;;;;5074961;28;20127;-85
2022/06/10 00:41:58;;;;;;;5.90;2.72;;;12.00;99.90;;;;;;5074319;28;20055;-83
2022/06/10 00:44:41;;;;;;;5.60;2.60;;;12.00;99.90;;;;;;5073941;28;20056;-85
2022/06/10 00:47:36;;;;;;;4.53;2.47;;;12.00;99.90;;;;;;5074181;28;20052;-86
2022/06/10 00:50:24;;;;;;;5.25;2.50;;;12.00;99.90;;;;;;5092593;28;20052;-83
2022/06/10 00:53:01;;;;;;;6.32;2.20;;;12.00;99.90;;;;;;5074623;28;20047;-84
2022/06/10 00:55:31;;;;;;;5.90;2.58;;;12.00;99.90;;;;;;5073944;28;20523;-83
2022/06/10 00:58:11;;;;;;;7.32;2.67;;;11.90;99.90;;;;;;5074472;28;20067;-82
2022/06/10 01:00:38;;;;;;;6.10;2.53;;;11.80;99.90;;;;;;5092270;28;20063;-85
2022/06/10 01:03:04;;;;;;;6.65;2.92;;;11.80;99.90;;;;;;5076991;28;20068;-87
2022/06/10 01:05:30;;;;;;;5.70;2.88;;;11.70;99.90;;;;;;5076773;28;20158;-89
2022/06/10 01:08:01;;;;;;;8.32;2.95;;;11.60;99.90;;;;;;5074389;28;20484;-87
2022/06/10 01:10:31;;;;;;;5.53;2.60;;;11.60;99.90;;;;;;5074361;28;20437;-86
2022/06/10 01:13:11;;;;;;;6.63;2.35;;;11.60;99.90;;;;;;5092362;28;20044;-86
2022/06/10 01:15:48;;;;;;;5.70;2.50;;;11.60;99.90;;;;;;5073488;28;20078;-84
2022/06/10 01:18:36;;;;;;;7.57;2.53;;;11.70;99.90;;;;;;5074151;28;20598;-83
2022/06/10 01:21:23;;;;;;;7.43;3.15;;;11.70;99.90;;;;;;5092144;28;20055;-86
2022/06/10 01:24:23;;;;;;;6.07;2.72;;;11.70;99.90;;;;;;5073330;28;20090;-83
2022/06/10 01:27:48;;;;;;;5.93;2.40;;;11.70;99.90;;;;;;5073700;28;20500;-86
2022/06/10 01:30:51;;;;;;;4.78;2.38;;;11.70;99.90;;;;;;5091965;28;20046;-85
2022/06/10 01:33:50;;;;;;;5.13;2.30;;;11.70;99.90;;;;;;5073923;28;20491;-87
2022/06/10 01:36:37;;;;;;;5.20;2.20;;;11.70;99.90;;;;;;5073803;28;20516;-86
2022/06/10 01:39:12;;;;;;;4.38;2.38;;;11.70;99.90;;;;;;5073800;28;20393;-85
2022/06/10 01:41:57;;;;;;;5.78;2.15;;;11.70;99.90;;;;;;5057200;28;20051;-86
2022/06/10 01:44:41;;;;;;;6.05;2.60;;;11.70;99.90;;;;;;5091426;28;20047;-87
2022/06/10 01:47:13;;;;;;;6.50;2.35;;;11.70;99.90;;;;;;5073296;28;20098;-86
2022/06/10 01:50:01;;;;;;;5.32;2.83;;;11.70;99.90;;;;;;5073941;28;20083;-88
2022/06/10 01:52:49;;;;;;;4.80;2.55;;;11.70;99.90;;;;;;5091595;28;20048;-85
2022/06/10 01:55:18;;;;;;;5.47;2.35;;;11.70;99.90;;;;;;5060222;28;20104;-86
2022/06/10 01:57:52;;;;;;;6.35;2.60;;;11.60;99.90;;;;;;5074200;28;20097;-86
2022/06/10 02:00:21;;;;;;;6.80;2.20;;;11.60;99.90;;;;;;5075409;28;20117;-86
2022/06/10 02:03:04;;;;;;;5.22;2.13;;;11.60;99.90;;;;;;5057040;28;20071;-87
2022/06/10 02:05:34;;;;;;;6.05;2.60;;;11.60;99.90;;;;;;5092656;28;20441;-86
2022/06/10 02:08:22;;;;;;;5.43;2.10;;;11.60;99.90;;;;;;5092188;28;20056;-85
2022/06/10 02:11:04;;;;;;;3.42;1.92;;;11.60;99.90;;;;;;5074272;28;20396;-84
2022/06/10 02:13:36;;;;;;;9.27;2.40;;;11.70;99.90;;;;;;5074030;28;20083;-86
2022/06/10 02:16:04;;;;;;;6.05;2.03;;;11.60;99.90;;;;;;5091641;28;20137;-85
2022/06/10 02:18:38;;;;;;;9.73;3.25;;;11.70;99.90;;;;;;5091786;28;20055;-84
2022/06/10 02:21:33;;;;;;;5.50;2.20;;;11.70;99.90;;;;;;5057454;28;20051;-84
2022/06/10 02:24:03;;;;;;;4.55;2.25;;;11.60;99.90;;;;;;5069514;28;20056;-84
2022/06/10 02:26:34;;;;;;;9.10;2.85;;;11.60;99.90;;;;;;5073397;28;20396;-84
2022/06/10 02:29:03;;;;;;;6.47;2.30;;;11.60;99.90;;;;;;5073375;28;20518;-83
2022/06/10 02:31:41;;;;;;;7.05;2.38;;;11.60;99.90;;;;;;5073407;28;20051;-82
2022/06/10 02:34:08;;;;;;;4.70;2.15;;;11.60;99.90;;;;;;5073331;28;20055;-84
2022/06/10 02:36:44;;;;;;;6.15;2.22;;;11.60;99.90;;;;;;5060262;28;20065;-86
2022/06/10 02:39:21;;;;;;;3.42;2.20;;;11.60;99.90;;;;;;5060311;28;20055;-82
2022/06/10 02:42:08;;;;;;;6.80;2.13;;;11.60;99.90;;;;;;5095070;28;20052;-82
2022/06/10 02:44:43;;;;;;;5.25;2.20;;;11.50;99.90;;;;;;5077136;28;20048;-84
2022/06/10 02:47:35;;;;;;;6.18;2.30;;;11.60;99.90;;;;;;5094306;28;20036;-84
2022/06/10 02:50:02;;;;;;;4.93;2.00;;;11.60;99.90;;;;;;5076923;28;20087;-83
2022/06/10 02:52:33;;;;;;;6.75;2.25;;;11.50;99.90;;;;;;5094825;28;20052;-83
2022/06/10 02:54:59;;;;;;;4.35;2.33;;;11.50;99.90;;;;;;5076599;28;20104;-83
2022/06/10 03:03:21;;;;;;;4.53;2.10;;;11.50;99.90;;;;;;5094869;28;20056;-82
2022/06/10 03:06:05;;;;;;;8.30;2.30;;;11.50;99.90;;;;;;5094476;28;20552;-82
2022/06/10 03:09:25;;;;;;;4.20;2.17;;;11.40;99.90;;;;;;5076533;28;20052;-82
2022/06/10 03:12:06;;;;;;;6.30;2.33;;;11.40;99.90;;;;;;5053900;28;20060;-82
2022/06/10 03:15:05;;;;;;;4.80;2.45;;;11.40;99.90;;;;;;5076851;28;20063;-82
2022/06/10 03:17:48;;;;;;;3.92;2.08;;;11.50;99.90;;;;;;5075582;28;20047;-82
2022/06/10 03:20:23;;;;;;;7.18;2.45;;;11.50;99.90;;;;;;5056274;28;20143;-82
2022/06/10 03:22:48;;;;;;;4.90;2.42;;;11.50;99.90;;;;;;5074141;28;20068;-81
2022/06/10 03:25:28;;;;;;;4.47;2.30;;;11.50;99.90;;;;;;5039749;28;20362;-81
2022/06/10 03:28:09;;;;;;;6.50;2.90;;;11.50;99.90;;;;;;5056405;28;20041;-81
2022/06/10 03:30:40;;;;;;;5.88;2.58;;;11.50;99.90;;;;;;5072938;28;20056;-82
2022/06/10 03:33:16;;;;;;;6.25;2.90;;;11.60;99.90;;;;;;5074064;28;20051;-81
2022/06/10 03:35:47;;;;;;;7.38;2.80;;;11.70;99.90;;;;;;5073807;28;20092;-81
2022/06/10 03:38:13;;;;;;;5.05;2.80;;;11.70;99.90;;;;;;5056391;28;20126;-81
2022/06/10 03:40:39;;;;;;;8.05;2.72;;;11.70;99.90;;;;;;5075040;28;20054;-83
2022/06/10 03:43:09;;;;;;;5.47;3.03;;;11.70;99.90;;;;;;5094103;28;20101;-83
2022/06/10 03:45:49;;;;;;;9.43;2.60;;;11.60;99.90;;;;;;5093728;28;20047;-82
2022/06/10 03:48:20;;;;;;;7.28;2.70;;;11.60;99.90;;;;;;5075415;28;20085;-81
2022/06/10 03:50:47;;;;;;;5.60;2.50;;;11.50;99.90;;;;;;5093969;28;20044;-83
2022/06/10 03:53:16;;;;;;;4.45;2.70;;;11.50;99.90;;;;;;5093748;28;20044;-82
2022/06/10 03:55:42;;;;;;;5.65;2.50;;;11.60;99.90;;;;;;5093837;28;20161;-84
2022/06/10 03:58:09;;;;;;;8.00;3.28;;;11.60;99.90;;;;;;5075700;28;20476;-83
2022/06/10 04:00:35;;;;;;;6.93;2.50;;;11.60;99.90;;;;;;5076020;28;20083;-82
2022/06/10 04:03:01;;;;;;;7.03;3.28;;;11.60;99.90;;;;;;5093659;28;20085;-83
2022/06/10 04:05:27;;;;;;;5.75;2.50;;;11.60;99.90;;;;;;5093828;28;20088;-82
2022/06/10 04:07:53;;;;;;;5.40;2.60;;;11.70;99.90;;;;;;5093405;28;20105;-83
2022/06/10 04:10:23;;;;;;;9.15;3.15;;;11.70;99.90;;;;;;5075656;28;20048;-83
2022/06/10 04:12:49;;;;;;;5.63;2.63;;;11.70;99.90;;;;;;5075323;28;20075;-81
2022/06/10 04:15:15;;;;;;;6.65;2.80;;;11.80;99.90;;;;;;5075227;28;20044;-84
2022/06/10 04:17:44;;;;;;;5.90;2.70;;;11.90;99.90;;;;;;5057866;28;20048;-83
2022/06/10 04:20:16;;;;;;;6.88;3.10;;;11.90;99.90;;;;;;5093174;28;20044;-83
2022/06/10 04:22:42;;;;;;;6.35;3.47;;;12.00;99.90;;;;;;5075434;28;20127;-82
2022/06/10 04:25:09;;;;;;;5.40;2.90;;;12.00;99.90;;;;;;5075315;28;20134;-81
2022/06/10 04:27:35;;;;;;;6.60;2.83;;;12.10;99.90;;;;;;5093013;28;20380;-82
2022/06/10 04:30:01;;;;;;;6.72;3.17;;;12.20;99.90;;;;;;5092985;28;20040;-82
2022/06/10 04:32:26;;;;;;;6.82;3.00;;;12.20;99.90;;;;;;5074889;28;20060;-81
2022/06/10 04:34:52;;;;;;;7.57;3.65;;;12.30;99.90;;;;;;5093012;28;20555;-82
2022/06/10 04:37:18;;;;;;;6.35;2.95;;;12.40;99.90;;;;;;5074818;28;20071;-81
2022/06/10 04:39:44;;;;;;;7.55;3.25;;;12.50;99.90;;;;;;5074723;28;20044;-82
2022/06/10 04:42:10;;;;;;;7.82;2.88;;;12.60;99.90;;;;;;5092811;28;20052;-82
2022/06/10 04:44:35;;;;;;;4.35;2.58;;;12.60;99.90;;;;;;5092713;28;20055;-80
2022/06/10 04:47:02;;;;;;;5.65;3.15;;;12.70;99.90;;;;;;5092113;28;20047;-81
2022/06/10 04:49:30;;;;;;;7.32;3.13;;;12.80;99.90;;;;;;5076983;28;20485;-81
2022/06/10 04:51:56;;;;;;;4.60;2.90;;;12.90;99.90;;;;;;5076603;28;20553;-83
2022/06/10 04:54:22;;;;;;;5.63;3.17;;;13.00;99.90;;;;;;5074257;28;20048;-80
2022/06/10 04:56:48;;;;;;;6.20;3.25;;;13.10;99.90;;;;;;5092199;28;20087;-83
2022/06/10 04:59:14;;;;;;;5.05;3.00;;;13.20;99.90;;;;;;5057801;28;20047;-86
2022/06/10 05:01:40;;;;;;;4.22;2.95;;;13.20;99.90;;;;;;5074509;28;20438;-84
2022/06/10 05:04:05;;;;;;;4.90;3.10;;;13.30;99.90;;;;;;5074561;28;20074;-83
2022/06/10 05:06:31;;;;;;;6.82;3.58;;;13.40;99.90;;;;;;5092368;28;20461;-83
2022/06/10 05:08:57;;;;;;;4.72;3.28;;;13.40;99.90;;;;;;5074309;28;20098;-84
2022/06/10 05:11:23;;;;;;;5.43;3.10;;;13.50;99.90;;;;;;5074276;28;20047;-83
2022/06/10 05:13:49;;;;;;;5.65;3.10;;;13.60;99.90;;;;;;5074397;28;20051;-81
2022/06/10 05:16:15;;;;;;;5.88;3.53;;;13.70;99.90;;;;;;5073390;28;20044;-85
2022/06/10 05:18:41;;;;;;;5.82;3.22;;;13.80;99.90;;;;;;5092063;28;20050;-81
2022/06/10 05:21:07;;;;;;;7.78;3.42;;;13.90;99.90;;;;;;5092024;28;20047;-84
2022/06/10 05:23:33;;;;;;;4.80;3.10;;;14.00;99.90;;;;;;5057824;28;20071;-83
2022/06/10 05:25:58;;;;;;;6.85;3.33;;;14.10;99.90;;;;;;5074155;28;20150;-83
2022/06/10 05:28:24;;;;;;;5.22;3.10;;;14.20;99.90;;;;;;5073910;28;20496;-85
2022/06/10 05:30:50;;;;;;;5.97;3.40;;;14.30;99.90;;;;;;5091952;28;20048;-82
2022/06/10 05:33:16;;;;;;;6.03;3.13;;;14.30;99.90;;;;;;5091529;28;20059;-86
2022/06/10 05:35:43;;;;;;;7.78;3.75;;;14.40;99.90;;;;;;5056808;28;20497;-81
2022/06/10 05:38:10;;;;;;;6.15;3.42;;;14.50;99.90;;;;;;5057297;28;20127;-88
2022/06/10 05:40:36;;;;;;;6.05;3.08;;;14.60;99.90;;;;;;5091777;28;20063;-83
2022/06/10 05:43:04;;;;;;;7.18;3.28;;;14.70;99.90;;;;;;5091656;28;20035;-83
2022/06/10 05:45:31;;;;;;;8.35;3.78;;;14.80;99.90;;;;;;5073739;28;20058;-83
2022/06/10 05:48:00;;;;;;;6.60;3.20;;;15.00;99.90;;;;;;5091172;28;20048;-82
2022/06/10 05:50:37;;;;;;;5.07;2.90;;;15.10;99.90;;;;;;5091500;28;20044;-80
2022/06/10 05:53:06;;;;;;;4.85;3.00;;;15.30;99.90;;;;;;5073664;28;20469;-81
2022/06/10 05:55:33;;;;;;;6.68;3.42;;;15.30;99.90;;;;;;5091232;28;20409;-83
2022/06/10 05:57:59;;;;;;;6.70;3.67;;;15.40;99.90;;;;;;5073283;28;20052;-84
2022/06/10 06:00:27;;;;;;;9.70;3.78;;;15.40;99.90;;;;;;5091350;28;20158;-80
2022/06/10 06:02:54;;;;;;;6.72;3.50;;;15.30;99.90;;;;;;5091452;28;20051;-78
2022/06/10 06:05:21;;;;;;;7.70;3.97;;;15.30;99.90;;;;;;5091044;28;20400;-81
2022/06/10 06:07:48;;;;;;;7.95;4.18;;;15.20;99.90;;;;;;5091332;28;20393;-81
2022/06/10 06:10:21;;;;;;;6.47;4.03;;;15.10;99.90;;;;;;5090748;28;20044;-79
2022/06/10 06:12:46;;;;;;;7.70;4.28;;;15.10;99.90;;;;;;5056836;28;20056;-78
2022/06/10 06:15:13;;;;;;;6.25;3.28;;;15.00;99.90;;;;;;5091134;28;20048;-79
2022/06/10 06:17:40;;;;;;;7.32;3.80;;;15.00;99.90;;;;;;5090657;28;20036;-73
2022/06/10 06:20:07;;;;;;;5.82;3.85;;;15.00;99.90;;;;;;5069982;28;20060;-74
2022/06/10 06:22:32;;;;;;;6.43;3.80;;;14.90;99.90;;;;;;5070973;28;20053;-73
2022/06/10 06:24:59;;;;;;;7.20;3.88;;;14.80;99.90;;;;;;5070894;28;20129;-74
2022/06/10 06:27:24;;;;;;;8.18;3.92;;;14.80;99.90;;;;;;5070931;28;20052;-73
2022/06/10 06:29:50;;;;;;;9.80;4.10;;;14.80;99.90;;;;;;5070780;28;20036;-73
2022/06/10 06:32:16;;;;;;;6.35;3.72;;;14.80;99.90;;;;;;5070990;28;20060;-72
2022/06/10 06:34:42;;;;;;;8.50;4.35;;;14.80;99.90;;;;;;5070861;28;20382;-73
2022/06/10 06:37:14;;;;;;;6.18;3.58;;;14.90;99.90;;;;;;5070670;28;20067;-73
2022/06/10 06:39:41;;;;;;;5.65;3.80;;;15.00;99.90;;;;;;5070880;28;20098;-71
2022/06/10 06:42:09;;;;;;;9.00;4.10;;;14.90;99.90;;;;;;5084053;28;20056;-73
2022/06/10 06:44:34;;;;;;;6.82;4.40;;;14.90;99.90;;;;;;5073008;28;20052;-72
2022/06/10 06:47:00;;;;;;;11.15;3.65;;;14.90;99.90;;;;;;5090322;28;20044;-72
2022/06/10 06:49:28;;;;;;;6.78;3.53;;;14.80;99.90;;;;;;5072998;28;20044;-72
2022/06/10 06:51:55;;;;;;;6.82;3.50;;;14.80;99.90;;;;;;5090851;28;20059;-72
2022/06/10 06:54:21;;;;;;;7.95;3.92;;;14.80;99.90;;;;;;5090546;28;20404;-73
2022/06/10 06:56:47;;;;;;;9.00;3.67;;;14.80;99.90;;;;;;5090789;28;20052;-72
2022/06/10 06:59:13;;;;;;;4.78;3.40;;;14.90;99.90;;;;;;5090748;28;20055;-71
2022/06/10 07:01:39;;;;;;;5.95;3.30;;;15.00;99.90;;;;;;5090996;28;20108;-71
2022/06/10 07:04:05;;;;;;;10.35;3.75;;;15.00;99.90;;;;;;5072859;28;20100;-72
2022/06/10 07:06:33;;;;;;;9.57;3.80;;;15.10;99.90;;;;;;5090892;28;20051;-72
2022/06/10 07:08:59;;;;;;;9.30;3.42;;;15.30;99.90;;;;;;5090305;28;20044;-74
2022/06/10 07:11:24;;;;;;;8.23;3.85;;;15.40;99.90;;;;;;5059253;28;20055;-73
2022/06/10 07:13:50;;;;;;;7.45;3.90;;;15.50;99.90;;;;;;5082560;28;20048;-73
2022/06/10 07:16:16;;;;;;;7.20;3.70;;;15.50;99.90;;;;;;5078099;28;20163;-72
2022/06/10 07:18:42;;;;;;;5.82;4.00;;;15.40;99.90;;;;;;5084746;28;20051;-73
2022/06/10 07:21:08;;;;;;;9.85;4.38;;;15.20;99.90;;;;;;5065812;28;20051;-74
2022/06/10 07:23:35;;;;;;;5.70;4.13;;;15.10;99.90;;;;;;5051464;28;20053;-72
2022/06/10 07:26:03;;;;;;;7.20;4.68;;;15.00;99.90;;;;;;5063698;28;20499;-72
2022/06/10 07:28:30;;;;;;;6.65;4.70;;;14.90;99.90;;;;;;5082371;28;20051;-71
2022/06/10 07:30:55;;;;;;;9.43;5.38;;;14.90;99.90;;;;;;5088469;28;20036;-73
2022/06/10 07:33:21;;;;;;;12.70;5.30;;;14.90;99.90;;;;;;5088718;28;20054;-73
2022/06/10 07:35:47;;;;;;;8.98;4.88;;;14.90;99.90;;;;;;5102196;28;20048;-72
2022/06/10 07:38:13;;;;;;;9.35;5.10;;;14.90;99.90;;;;;;5093618;28;20502;-72
2022/06/10 07:43:27;;;;;;;9.40;5.18;;;15.00;99.90;;;;;;5093605;28;20093;-73
2022/06/10 07:45:54;;;;;;;7.78;5.00;;;15.10;99.90;;;;;;5093474;28;20043;-72
2022/06/10 07:48:21;;;;;;;8.95;5.38;;;15.10;99.90;;;;;;5092537;28;20050;-73
2022/06/10 07:50:47;;;;;;;11.55;5.20;;;15.20;99.90;;;;;;5075514;28;20536;-71
2022/06/10 07:53:14;;;;;;;7.93;5.38;;;15.30;99.90;;;;;;5093532;28;20123;-73
2022/06/10 07:55:41;;;;;;;11.27;5.55;;;15.30;99.90;;;;;;5092765;28;20059;-73
2022/06/10 07:58:07;;;;;;;8.73;5.28;;;15.40;99.90;;;;;;5093305;28;20388;-73
2022/06/10 08:00:34;;;;;;;10.00;5.18;;;15.50;99.90;;;;;;5092961;28;20462;-73
2022/06/10 08:03:01;;;;;;;6.95;4.28;;;15.70;99.90;;;;;;5092781;28;20052;-73
2022/06/10 08:05:28;;;;;;;8.85;4.70;;;15.80;99.90;;;;;;5074887;28;20044;-73
2022/06/10 08:07:55;;;;;;;6.95;4.82;;;15.80;99.90;;;;;;5093139;28;20048;-72
2022/06/10 08:10:32;;;;;;;7.47;4.88;;;15.90;99.90;;;;;;5092640;28;20079;-73
2022/06/10 08:12:58;;;;;;;8.35;4.88;;;16.00;99.90;;;;;;5089650;28;20432;-75
2022/06/10 08:15:25;;;;;;;9.48;4.25;;;16.20;99.90;;;;;;5072898;28;20128;-74
2022/06/10 08:17:51;;;;;;;9.02;4.90;;;16.30;99.90;;;;;;5054142;28;20759;-72
2022/06/10 08:20:21;;;;;;;12.88;5.53;;;16.30;99.90;;;;;;5092930;28;20104;-71
2022/06/10 08:22:47;;;;;;;7.80;4.45;;;16.30;99.90;;;;;;5092769;28;20063;-72
2022/06/10 08:25:13;;;;;;;10.07;4.90;;;16.20;99.90;;;;;;5092049;28;20412;-71
2022/06/10 08:27:39;;;;;;;7.55;4.88;;;16.20;99.90;;;;;;5092668;28;20430;-71
2022/06/10 08:30:08;;;;;;;6.97;4.80;;;16.30;99.90;;;;;;5092636;28;20078;-73
2022/06/10 08:32:33;;;;;;;9.57;4.38;;;16.40;99.90;;;;;;5092295;28;20075;-73
2022/06/10 08:34:59;;;;;;;7.10;4.57;;;16.60;99.90;;;;;;5076461;28;20084;-73
2022/06/10 08:37:25;;;;;;;8.98;4.68;;;16.70;99.90;;;;;;5094531;28;20400;-73
2022/06/10 08:39:51;;;;;;;8.75;4.57;;;16.70;99.90;;;;;;5091556;28;20040;-75
2022/06/10 08:42:39;;;;;;;8.73;5.20;;;16.80;99.90;;;;;;5055614;28;20040;-73
2022/06/10 08:45:38;;;;;;;9.30;4.60;;;16.90;99.90;;;;;;5091332;28;20396;-74
2022/06/10 08:48:16;;;;;;;7.13;4.22;;;17.00;99.90;;;;;;5082083;28;20052;-74
2022/06/10 08:51:01;;;;;;;6.47;4.47;;;17.00;99.90;;;;;;5090696;28;20127;-73
2022/06/10 08:53:38;;;;;;;5.60;3.63;;;17.10;99.90;;;;;;5091202;28;20047;-75
2022/06/10 08:56:27;;;;;;;6.65;4.30;;;17.10;99.90;;;;;;5091149;28;20063;-73
2022/06/10 08:58:59;;;;;;;7.38;4.00;;;17.20;99.90;;;;;;5092293;28;20040;-73
2022/06/10 09:01:26;;;;;;;7.28;4.20;;;17.20;99.90;;;;;;5091497;28;20749;-73
2022/06/10 09:03:51;;;;;;;9.45;4.30;;;17.30;99.90;;;;;;5073595;28;20059;-74
2022/06/10 09:06:35;;;;;;;6.53;3.70;;;17.30;99.90;;;;;;5091479;28;20066;-72
2022/06/10 09:09:04;;;;;;;6.82;3.22;;;17.30;99.90;;;;;;5091502;28;20703;-73
2022/06/10 09:11:51;;;;;;;7.57;3.65;;;17.30;99.90;;;;;;5091782;28;20123;-73
2022/06/10 09:14:22;;;;;;;7.85;4.25;;;17.20;99.90;;;;;;5074297;28;20077;-71
2022/06/10 09:17:02;;;;;;;7.97;3.72;;;17.20;99.90;;;;;;5090698;28;20121;-73
2022/06/10 09:19:47;;;;;;;5.93;3.92;;;17.20;99.90;;;;;;5091736;28;20070;-72
2022/06/10 09:22:13;;;;;;;5.55;3.88;;;17.30;99.90;;;;;;5091277;28;20497;-73
2022/06/10 09:24:55;;;;;;;6.38;4.10;;;17.30;99.90;;;;;;5091182;28;20044;-72
2022/06/10 09:27:30;;;;;;;8.13;4.20;;;17.20;99.90;;;;;;5091461;28;20118;-73
2022/06/10 09:29:57;;;;;;;5.93;4.22;;;17.20;99.90;;;;;;5091229;28;20055;-73
2022/06/10 09:32:57;;;;;;;8.65;4.22;;;17.10;99.90;;;;;;5089629;28;20481;-73
2022/06/10 09:35:53;;;;;;;9.02;4.55;;;17.10;99.90;;;;;;5091359;28;20126;-72
2022/06/10 09:38:36;;;;;;;6.97;4.07;;;17.00;99.90;;;;;;5001815;28;20054;-72
2022/06/10 09:41:22;;;;;;;6.03;3.70;;;17.00;99.90;;;;;;5073602;28;20047;-73
2022/06/10 09:44:07;;;;;;;7.15;4.43;;;17.00;99.90;;;;;;5058615;28;20447;-72
2022/06/10 09:46:45;;;;;;;7.95;4.32;;;17.10;99.90;;;;;;5090213;28;20101;-72
2022/06/10 09:49:35;;;;;;;6.50;3.88;;;17.10;99.90;;;;;;5091135;28;20138;-72
2022/06/10 09:52:09;;;;;;;6.13;3.38;;;17.00;99.90;;;;;;5090773;28;20134;-72
2022/06/10 09:54:46;;;;;;;7.55;3.55;;;17.00;99.90;;;;;;5091184;28;20059;-72
2022/06/10 09:57:37;;;;;;;6.93;3.40;;;17.00;99.90;;;;;;5091325;28;20062;-72
2022/06/10 10:00:19;;;;;;;8.43;3.92;;;17.00;99.90;;;;;;5090945;28;20098;-72
2022/06/10 10:03:31;;;;;;;6.93;3.58;;;17.10;99.90;;;;;;5091088;28;20113;-72
2022/06/10 10:06:25;;;;;;;5.05;3.40;;;17.20;99.90;;;;;;5090841;28;20100;-71
2022/06/10 10:09:09;;;;;;;4.47;3.15;;;17.20;99.90;;;;;;5072743;28;20079;-72
2022/06/10 10:12:08;;;;;;;6.55;3.38;;;17.30;99.90;;;;;;5055742;28;20484;-73
2022/06/10 10:15:00;;;;;;;6.85;3.13;;;17.40;99.90;;;;;;5065258;28;20109;-73
2022/06/10 10:17:58;;;;;;;5.63;3.28;;;17.40;99.90;;;;;;5074403;28;20045;-73
2022/06/10 10:20:40;;;;;;;5.28;3.10;;;17.40;99.90;;;;;;5070861;28;20494;-72
2022/06/10 10:23:17;;;;;;;6.38;3.20;;;17.40;99.90;;;;;;5071067;28;20061;-72
2022/06/10 10:25:45;;;;;;;6.40;3.25;;;17.40;99.90;;;;;;5091020;28;20101;-73
2022/06/10 10:28:25;;;;;;;7.85;2.92;;;17.40;99.90;;;;;;5090239;28;20608;-73
2022/06/10 10:31:19;;;;;;;5.93;2.80;;;17.60;99.90;;;;;;5090641;28;20074;-72
2022/06/10 10:33:45;;;;;;;7.22;2.90;;;17.90;99.90;;;;;;5072973;28;20392;-72
2022/06/10 10:36:21;;;;;;;8.50;3.20;;;18.20;99.90;;;;;;5090401;28;20055;-72
2022/06/10 10:38:48;;;;;;;5.15;2.90;;;18.30;99.90;;;;;;5090230;28;20048;-72
2022/06/10 10:41:38;;;;;;;6.72;3.40;;;18.50;99.90;;;;;;5090476;28;20040;-72
2022/06/10 10:44:20;;;;;;;6.70;3.42;;;18.50;99.90;;;;;;5090523;28;20084;-72
2022/06/10 10:47:18;;;;;;;5.25;2.90;;;18.60;99.90;;;;;;5072256;28;20052;-73
2022/06/10 10:49:55;;;;;;;5.38;3.10;;;18.70;99.90;;;;;;5071044;28;20450;-73
2022/06/10 10:52:28;;;;;;;5.28;3.15;;;18.80;99.90;;;;;;5090527;28;20044;-74
2022/06/10 10:54:59;;;;;;;6.57;3.28;;;18.90;99.90;;;;;;5090448;28;20060;-73
2022/06/10 10:57:33;;;;;;;6.75;2.88;;;18.90;99.90;;;;;;5094223;28;20109;-75
2022/06/10 11:00:12;;;;;;;5.45;2.83;;;18.90;99.90;;;;;;5075950;28;20043;-74
2022/06/10 11:02:51;;;;;;;7.22;3.28;;;19.00;99.90;;;;;;5094255;28;20515;-75
2022/06/10 11:05:23;;;;;;;8.15;2.92;;;19.10;99.90;;;;;;5094337;28;20132;-76
2022/06/10 11:08:10;;;;;;;7.00;3.53;;;19.10;99.90;;;;;;5094040;28;20040;-73
2022/06/10 11:10:54;;;;;;;6.72;3.67;;;19.30;99.90;;;;;;5094095;28;20048;-75
2022/06/10 11:13:41;;;;;;;8.75;3.80;;;19.50;99.90;;;;;;5087796;28;20056;-74
2022/06/10 11:16:38;;;;;;;7.63;4.05;;;19.50;99.90;;;;;;5056020;28;20048;-75
2022/06/10 11:19:23;;;;;;;8.88;3.70;;;19.70;99.90;;;;;;5066232;28;20059;-74
2022/06/10 11:21:56;;;;;;;6.18;4.20;;;19.70;99.90;;;;;;5093855;28;20055;-76
2022/06/10 11:24:37;;;;;;;9.93;4.53;;;19.70;99.90;;;;;;5075745;28;20739;-76
2022/06/10 11:27:35;;;;;;;4.70;3.20;;;19.80;99.90;;;;;;5075686;28;20044;-77
2022/06/10 11:30:04;;;;;;;7.10;3.70;;;19.80;99.90;;;;;;5066710;28;20055;-75
2022/06/10 11:32:42;;;;;;;6.10;3.65;;;19.70;99.90;;;;;;5078457;28;20513;-76
2022/06/10 11:35:32;;;;;;;4.78;3.60;;;19.70;99.90;;;;;;5073273;28;20433;-74
2022/06/10 11:38:16;;;;;;;6.45;3.22;;;19.60;99.90;;;;;;5072670;28;20075;-74
2022/06/10 11:40:53;;;;;;;6.55;3.08;;;19.60;99.90;;;;;;5073635;28;20456;-72
2022/06/10 11:43:25;;;;;;;8.00;3.03;;;19.50;99.90;;;;;;5075531;28;20498;-72
2022/06/10 11:46:27;;;;;;;6.32;2.60;;;19.60;99.90;;;;;;5075805;28;20056;-76
2022/06/10 11:49:11;;;;;;;6.30;3.00;;;19.80;99.90;;;;;;5075566;28;20045;-75
2022/06/10 11:51:47;;;;;;;6.00;2.72;;;20.10;99.90;;;;;;5074552;28;20051;-72
2022/06/10 11:54:26;;;;;;;4.97;2.88;;;20.30;99.90;;;;;;5090769;28;20048;-72
2022/06/10 12:00:34;;;;;;;6.30;2.42;;;20.30;99.90;;;;;;5070280;28;20048;-71
2022/06/10 12:03:12;;;;;;;5.70;2.67;;;20.50;99.90;;;;;;5091241;28;20058;-71
2022/06/10 12:05:48;;;;;;;6.47;2.97;;;20.50;99.90;;;;;;5092297;28;20051;-72
2022/06/10 12:08:19;;;;;;;5.05;2.58;;;20.60;99.90;;;;;;5092029;28;20080;-73
2022/06/10 12:10:54;;;;;;;4.68;2.67;;;20.80;99.90;;;;;;5075129;28;20056;-74
2022/06/10 12:13:23;;;;;;;5.35;2.75;;;20.80;99.90;;;;;;5074717;28;20056;-72
2022/06/10 12:15:55;;;;;;;4.30;2.22;;;20.70;99.90;;;;;;5092774;28;20044;-73
2022/06/10 12:18:25;;;;;;;4.63;2.78;;;20.60;99.90;;;;;;5074633;28;20050;-74
2022/06/10 12:21:03;;;;;;;5.88;2.50;;;20.50;99.90;;;;;;5094134;28;20443;-74
2022/06/10 12:23:33;;;;;;;7.10;2.55;;;20.40;99.90;;;;;;5093301;28;20430;-73
2022/06/10 12:26:08;;;;;;;3.67;2.38;;;20.20;99.90;;;;;;5092831;28;20044;-73
2022/06/10 12:28:40;;;;;;;7.40;2.42;;;20.20;99.90;;;;;;5092777;28;20077;-73
2022/06/10 12:31:18;;;;;;;5.78;2.47;;;20.10;99.90;;;;;;5074635;28;20142;-74
2022/06/10 12:33:52;;;;;;;5.57;2.45;;;20.10;99.90;;;;;;5091782;28;20400;-72
2022/06/10 12:36:28;;;;;;;3.65;2.08;;;20.00;99.90;;;;;;5092556;28;20575;-73
2022/06/10 12:38:57;;;;;;;6.72;2.72;;;20.00;99.90;;;;;;5092469;28;20393;-73
2022/06/10 12:41:39;;;;;;;6.25;2.28;;;20.20;99.90;;;;;;5092523;28;20080;-72
2022/06/10 12:44:11;;;;;;;6.57;2.45;;;19.90;99.90;;;;;;5092406;28;20074;-72
2022/06/10 12:46:59;;;;;;;3.50;1.90;;;20.10;99.90;;;;;;5092262;28;20071;-73
2022/06/10 12:49:39;;;;;;;4.45;2.30;;;20.30;99.90;;;;;;5092237;28;20052;-74
2022/06/10 12:52:29;;;;;;;5.20;2.60;;;20.50;99.90;;;;;;5057698;28;20138;-72
2022/06/10 12:55:13;;;;;;;3.88;2.08;;;20.50;99.90;;;;;;5073787;28;20361;-72
2022/06/10 12:57:42;;;;;;;6.45;2.45;;;20.50;99.90;;;;;;5073879;28;20398;-72
2022/06/10 13:00:38;;;;;;;4.68;2.30;;;20.40;99.90;;;;;;5092049;28;20048;-71
2022/06/10 13:03:12;;;;;;;6.13;2.28;;;20.30;99.90;;;;;;5087082;28;20048;-75
2022/06/10 13:05:42;;;;;;;5.55;2.40;;;20.30;99.90;;;;;;5074013;28;20048;-70
2022/06/10 13:08:34;;;;;;;4.88;2.58;;;20.20;99.90;;;;;;5071622;28;20040;-71
2022/06/10 13:11:02;;;;;;;5.93;2.28;;;20.30;99.90;;;;;;5053621;28;20098;-72
2022/06/10 13:13:28;;;;;;;7.00;2.38;;;20.40;99.90;;;;;;5071368;28;20048;-73
2022/06/10 13:16:15;;;;;;;4.55;1.92;;;20.50;99.90;;;;;;5071004;28;20489;-74
2022/06/10 13:18:53;;;;;;;6.75;2.60;;;20.70;99.90;;;;;;5078025;28;20556;-74
2022/06/10 13:21:29;;;;;;;5.32;2.67;;;20.80;99.90;;;;;;5091298;28;20633;-76
2022/06/10 13:23:58;;;;;;;4.03;2.45;;;20.90;99.90;;;;;;5091416;28;20119;-74
2022/06/10 13:26:26;;;;;;;5.97;2.20;;;20.90;99.90;;;;;;5091207;28;20044;-74
2022/06/10 13:28:51;;;;;;;6.13;2.50;;;20.90;99.90;;;;;;5091401;28;20044;-74
2022/06/10 13:31:24;;;;;;;3.33;2.00;;;20.90;99.90;;;;;;5073299;28;20048;-73